Time;durP1;ratioP1;P1;durP2;ratioP2;P2;SDS_P1;SDS_P2;PMS_P1;PMS_P2;Temp;Humidity;BMP_temperature;BMP_pressure;BME280_temperature;BME280_humidity;BME280_pressure;Samples;Min_cycle;Max_cycle;Signal;HPM_P1;HPM_P2
2023/06/26 00:03:16;;;;;;;7.70;6.33;;;21.50;86.60;;;;;;20862319;28;20234;-70
2023/06/26 00:13:18;;;;;;;7.60;6.33;;;21.30;88.40;;;;;;20927970;28;20302;-70
2023/06/26 00:23:19;;;;;;;8.73;6.43;;;21.00;90.00;;;;;;20926843;28;20247;-66
2023/06/26 00:33:22;;;;;;;7.00;6.30;;;20.90;90.60;;;;;;20926819;28;20247;-66
2023/06/26 00:43:23;;;;;;;7.07;5.93;;;20.80;90.90;;;;;;20926039;28;20243;-66
2023/06/26 00:53:25;;;;;;;7.40;6.40;;;20.60;91.50;;;;;;20925639;28;20294;-73
2023/06/26 01:03:27;;;;;;;8.77;6.43;;;20.60;91.90;;;;;;20926698;28;20318;-73
2023/06/26 01:13:29;;;;;;;7.10;6.40;;;20.50;92.20;;;;;;20926873;28;20241;-68
2023/06/26 01:24:04;;;;;;;7.47;6.70;;;20.30;92.40;;;;;;20922563;28;20238;-70
2023/06/26 01:34:06;;;;;;;10.20;6.47;;;20.30;92.80;;;;;;20921274;28;20268;-67
2023/06/26 01:44:14;;;;;;;7.90;6.40;;;20.20;93.10;;;;;;20921589;28;20668;-66
2023/06/26 01:54:19;;;;;;;8.37;6.33;;;20.20;93.30;;;;;;20920596;28;20780;-65
2023/06/26 02:04:20;;;;;;;7.00;6.30;;;20.10;93.50;;;;;;20919441;28;20243;-75
2023/06/26 02:14:22;;;;;;;7.37;6.33;;;20.00;93.70;;;;;;20919217;28;20680;-67
2023/06/26 02:24:24;;;;;;;9.53;6.70;;;19.80;94.00;;;;;;20915873;28;20282;-67
2023/06/26 02:34:25;;;;;;;8.40;6.93;;;19.80;94.30;;;;;;20917252;28;20304;-73
2023/06/26 02:44:27;;;;;;;11.63;6.73;;;19.70;94.40;;;;;;20916583;28;20311;-70
2023/06/26 02:54:29;;;;;;;9.07;6.80;;;19.60;94.50;;;;;;20915598;28;20211;-73
2023/06/26 03:04:31;;;;;;;7.57;6.13;;;19.60;94.80;;;;;;20914850;28;20325;-75
2023/06/26 03:14:33;;;;;;;8.83;6.97;;;19.40;95.00;;;;;;20914706;28;20207;-73
2023/06/26 03:24:34;;;;;;;7.57;6.77;;;19.20;95.40;;;;;;20912832;28;20229;-67
2023/06/26 03:34:36;;;;;;;8.13;7.23;;;19.20;95.50;;;;;;20912944;28;20289;-65
2023/06/26 03:44:38;;;;;;;8.70;6.47;;;19.10;95.90;;;;;;20913348;28;20255;-69
2023/06/26 03:54:41;;;;;;;9.77;6.97;;;19.00;96.00;;;;;;20913433;28;20243;-71
2023/06/26 04:04:43;;;;;;;9.03;7.07;;;19.00;96.10;;;;;;20911752;28;20240;-72
2023/06/26 04:14:44;;;;;;;12.13;7.60;;;19.10;96.30;;;;;;20911554;28;20305;-67
2023/06/26 04:24:46;;;;;;;11.63;7.43;;;19.20;96.30;;;;;;20910761;28;20246;-68
2023/06/26 04:34:48;;;;;;;9.20;7.17;;;19.30;96.30;;;;;;20910657;28;20203;-68
2023/06/26 04:44:50;;;;;;;9.07;7.20;;;19.40;96.30;;;;;;20914938;28;20683;-69
2023/06/26 04:54:51;;;;;;;11.30;7.60;;;19.70;96.30;;;;;;20924866;28;20290;-72
2023/06/26 05:04:53;;;;;;;9.17;7.90;;;19.70;96.20;;;;;;20922732;28;20326;-76
2023/06/26 05:14:55;;;;;;;12.17;7.83;;;20.00;96.00;;;;;;20926200;28;20701;-69
2023/06/26 05:24:59;;;;;;;14.13;9.77;;;20.30;96.10;;;;;;20923762;28;20664;-70
2023/06/26 05:35:03;;;;;;;15.53;9.33;;;20.70;95.80;;;;;;20921863;28;20663;-74
2023/06/26 05:45:05;;;;;;;15.10;9.23;;;20.80;95.30;;;;;;20920907;28;20247;-72
2023/06/26 05:55:07;;;;;;;21.50;9.50;;;21.10;95.10;;;;;;20919812;28;20263;-72
2023/06/26 06:05:09;;;;;;;17.43;9.10;;;21.40;94.70;;;;;;20919187;28;20331;-74
2023/06/26 06:15:11;;;;;;;18.10;10.03;;;21.50;94.30;;;;;;20918511;28;20246;-75
2023/06/26 06:25:13;;;;;;;18.97;12.83;;;21.90;93.80;;;;;;20917517;28;20254;-76
2023/06/26 06:35:14;;;;;;;14.90;8.87;;;22.10;93.40;;;;;;20919295;28;20212;-73
2023/06/26 06:45:16;;;;;;;18.37;9.63;;;22.40;92.90;;;;;;20876586;28;20283;-72
2023/06/26 06:55:18;;;;;;;11.40;8.20;;;22.60;92.30;;;;;;20875833;28;20215;-73
2023/06/26 07:05:20;;;;;;;13.07;7.93;;;23.00;91.80;;;;;;20866627;28;20724;-78
2023/06/26 07:15:22;;;;;;;14.33;8.90;;;23.30;91.30;;;;;;20869005;28;20219;-72
2023/06/26 07:25:23;;;;;;;10.37;7.80;;;23.60;90.70;;;;;;20874519;28;20271;-72
2023/06/26 07:35:27;;;;;;;16.00;7.57;;;23.80;90.20;;;;;;20869200;28;20303;-74
2023/06/26 07:45:29;;;;;;;9.63;7.37;;;24.20;89.20;;;;;;20869148;28;20239;-74
2023/06/26 07:55:31;;;;;;;15.23;7.27;;;;;;;;;;20863935;28;20208;-75
2023/06/26 08:05:35;;;;;;;8.97;7.13;;;24.70;85.70;;;;;;20860187;28;20666;-73
2023/06/26 08:15:37;;;;;;;9.43;6.87;;;25.00;84.00;;;;;;20843396;28;20209;-74
2023/06/26 08:25:39;;;;;;;10.93;6.83;;;25.30;82.30;;;;;;20843661;28;20248;-73
2023/06/26 08:35:41;;;;;;;10.10;6.50;;;25.70;80.50;;;;;;20841989;28;20251;-72
2023/06/26 08:45:43;;;;;;;11.00;7.00;;;26.00;78.40;;;;;;20842150;28;20335;-72
2023/06/26 08:55:45;;;;;;;10.40;6.73;;;26.30;76.20;;;;;;20841861;28;20200;-72
2023/06/26 09:05:47;;;;;;;6.83;6.00;;;26.60;73.60;;;;;;20840995;28;20661;-71
2023/06/26 09:15:48;;;;;;;7.87;6.27;;;26.80;70.60;;;;;;20840792;28;20685;-74
2023/06/26 09:25:51;;;;;;;10.33;5.90;;;27.10;66.90;;;;;;20838388;28;20330;-75
2023/06/26 09:35:53;;;;;;;16.37;6.20;;;27.40;61.90;;;;;;20837293;28;20204;-72
2023/06/26 09:45:55;;;;;;;9.13;6.10;;;27.90;57.80;;;;;;20837376;28;20332;-67
2023/06/26 09:55:56;;;;;;;8.75;7.82;;;28.20;55.60;;;;;;20836988;28;20672;-67
2023/06/26 10:06:00;;;;;;;7.15;5.05;;;28.40;54.60;;;;;;20836314;28;20315;-69
2023/06/26 10:16:03;;;;;;;6.95;5.47;;;28.60;52.50;;;;;;20836797;28;20204;-67
2023/06/26 10:26:07;;;;;;;7.18;5.22;;;28.80;51.50;;;;;;20873699;28;20695;-76
2023/06/26 10:36:16;;;;;;;6.10;5.50;;;29.00;50.60;;;;;;20875059;28;20247;-73
2023/06/26 10:46:19;;;;;;;6.13;5.00;;;29.30;49.40;;;;;;20875279;28;20236;-72
2023/06/26 10:56:40;;;;;;;29.38;5.22;;;29.60;49.30;;;;;;20864577;28;20304;-73
2023/06/26 11:06:45;;;;;;;6.00;5.40;;;29.80;48.50;;;;;;20863525;28;20228;-72
2023/06/26 11:16:48;;;;;;;10.02;5.80;;;30.10;49.20;;;;;;20872443;28;20255;-72
2023/06/26 11:26:50;;;;;;;12.07;6.22;;;30.10;49.30;;;;;;20865480;28;20232;-73
2023/06/26 11:36:52;;;;;;;7.70;5.50;;;30.30;49.70;;;;;;20863082;28;20600;-72
2023/06/26 11:46:55;;;;;;;6.57;5.07;;;30.50;49.60;;;;;;20870738;28;20340;-73
2023/06/26 11:56:58;;;;;;;9.00;5.25;;;30.50;49.10;;;;;;20865341;28;20282;-69
2023/06/26 12:07:03;;;;;;;10.60;5.50;;;30.50;49.30;;;;;;20831688;28;20243;-68
2023/06/26 12:17:10;;;;;;;6.88;6.13;;;30.50;49.30;;;;;;20840070;28;20204;-69
2023/06/26 12:27:14;;;;;;;7.25;6.40;;;30.80;49.20;;;;;;20827887;28;20236;-71
2023/06/26 12:37:16;;;;;;;9.60;6.63;;;30.90;49.20;;;;;;20827384;28;20676;-69
2023/06/26 12:47:23;;;;;;;10.93;7.03;;;30.90;49.70;;;;;;20826377;28;20331;-73
2023/06/26 12:57:26;;;;;;;8.32;7.00;;;30.60;50.30;;;;;;20879930;28;20312;-67
2023/06/26 13:07:28;;;;;;;15.82;7.30;;;30.70;50.60;;;;;;20858724;28;20294;-69
2023/06/26 13:17:29;;;;;;;9.43;6.30;;;30.40;51.20;;;;;;20839562;28;20682;-71
2023/06/26 13:27:31;;;;;;;10.00;6.80;;;30.10;52.20;;;;;;20838786;28;20236;-68
2023/06/26 13:37:34;;;;;;;12.88;6.60;;;30.20;52.50;;;;;;20837860;28;20204;-72
2023/06/26 13:47:37;;;;;;;14.15;6.68;;;30.20;52.00;;;;;;20837839;28;20244;-71
2023/06/26 13:57:41;;;;;;;7.63;5.80;;;30.20;52.30;;;;;;20837002;28;20204;-74
2023/06/26 14:07:43;;;;;;;11.82;6.40;;;30.20;52.50;;;;;;20835960;28;20641;-71
2023/06/26 14:17:45;;;;;;;7.75;5.93;;;30.40;52.50;;;;;;20835059;28;20204;-71
2023/06/26 14:27:47;;;;;;;9.68;5.60;;;30.50;51.90;;;;;;20834340;28;20703;-72
2023/06/26 14:37:49;;;;;;;8.25;5.55;;;31.30;50.20;;;;;;20833490;28;20698;-80
2023/06/26 14:47:51;;;;;;;8.30;5.70;;;31.50;49.30;;;;;;20853275;28;20714;-73
2023/06/26 14:57:52;;;;;;;9.95;5.43;;;30.90;49.50;;;;;;20886594;28;20211;-74
2023/06/26 15:07:54;;;;;;;7.45;5.80;;;30.40;49.20;;;;;;20859062;28;20247;-73
2023/06/26 15:17:56;;;;;;;6.25;5.65;;;30.40;48.50;;;;;;20846775;28;20288;-73
2023/06/26 15:27:58;;;;;;;11.77;6.25;;;29.70;48.30;;;;;;20860083;28;20236;-71
2023/06/26 15:37:59;;;;;;;9.65;6.22;;;30.00;49.40;;;;;;20831604;28;20219;-72
2023/06/26 15:48:01;;;;;;;11.95;6.13;;;30.10;51.10;;;;;;20830428;28;20315;-76
2023/06/26 15:58:03;;;;;;;8.50;5.93;;;30.20;51.20;;;;;;20829464;28;20243;-72
2023/06/26 16:08:05;;;;;;;10.65;6.25;;;29.60;52.30;;;;;;20827941;28;20319;-72
2023/06/26 16:18:06;;;;;;;8.63;5.15;;;31.00;51.30;;;;;;20827569;28;20208;-69
2023/06/26 16:28:08;;;;;;;9.90;5.18;;;32.30;49.10;;;;;;20828301;28;20275;-72
2023/06/26 16:38:10;;;;;;;11.63;5.00;;;31.60;48.80;;;;;;20832873;28;20577;-77
2023/06/26 16:48:15;;;;;;;8.55;4.50;;;29.70;50.60;;;;;;20871768;28;20574;-77
2023/06/26 16:58:18;;;;;;;9.80;4.75;;;29.60;51.30;;;;;;20842793;28;20209;-71
2023/06/26 17:08:20;;;;;;;6.18;3.72;;;29.50;51.40;;;;;;20841589;28;20228;-73
2023/06/26 17:18:22;;;;;;;8.75;3.30;;;30.50;49.10;;;;;;20841292;28;20214;-72
2023/06/26 17:28:24;;;;;;;11.40;3.45;;;32.10;45.60;;;;;;20841318;28;20233;-69
2023/06/26 17:38:27;;;;;;;4.70;2.30;;;31.50;45.60;;;;;;20916119;28;20643;-68
2023/06/26 17:48:29;;;;;;;6.25;2.65;;;33.70;39.70;;;;;;20892889;28;20691;-72
2023/06/26 17:58:30;;;;;;;8.82;2.50;;;31.40;40.30;;;;;;20879101;28;20582;-71
2023/06/26 18:08:32;;;;;;;9.70;2.40;;;30.80;41.50;;;;;;20902269;28;20245;-75
2023/06/26 18:18:37;;;;;;;36.80;2.65;;;29.00;42.50;;;;;;20918608;28;20719;-75
2023/06/26 18:28:39;;;;;;;6.00;2.50;;;27.70;44.40;;;;;;20918442;28;20323;-72
2023/06/26 18:38:45;;;;;;;4.17;2.20;;;26.60;45.50;;;;;;20898278;28;20349;-75
2023/06/26 18:48:47;;;;;;;5.10;2.10;;;26.10;46.30;;;;;;20916002;28;20603;-74
2023/06/26 18:58:49;;;;;;;5.80;2.13;;;25.50;46.90;;;;;;20853902;28;20648;-76
2023/06/26 19:08:51;;;;;;;4.90;2.20;;;25.20;47.60;;;;;;20872238;28;20256;-76
2023/06/26 19:18:55;;;;;;;10.83;2.60;;;24.90;48.00;;;;;;20912123;28;20204;-74
2023/06/26 19:29:01;;;;;;;9.73;2.40;;;24.60;48.80;;;;;;20912104;28;20239;-75
2023/06/26 19:39:02;;;;;;;4.00;2.33;;;24.40;49.40;;;;;;20910829;28;20315;-79
2023/06/26 19:49:04;;;;;;;5.43;2.30;;;24.10;50.10;;;;;;20910065;28;20235;-66
2023/06/26 19:59:06;;;;;;;5.17;2.47;;;24.00;50.70;;;;;;20910257;28;20211;-72
2023/06/26 20:09:08;;;;;;;11.27;2.43;;;23.80;51.10;;;;;;20909378;28;20738;-71
2023/06/26 20:19:09;;;;;;;8.17;1.97;;;23.70;51.50;;;;;;20921262;28;20290;-67
2023/06/26 20:29:11;;;;;;;6.27;2.70;;;23.40;51.70;;;;;;20925991;28;20236;-71
2023/06/26 20:39:13;;;;;;;4.73;2.30;;;23.40;51.30;;;;;;20923332;28;20338;-70
2023/06/26 20:49:15;;;;;;;9.73;2.00;;;23.30;50.90;;;;;;20923728;28;20326;-72
2023/06/26 20:59:17;;;;;;;6.50;2.00;;;23.20;50.90;;;;;;20885118;28;20568;-75
2023/06/26 21:09:19;;;;;;;5.13;1.87;;;23.10;50.40;;;;;;20839742;28;20232;-76
2023/06/26 21:19:21;;;;;;;3.83;1.90;;;23.00;49.90;;;;;;20899982;28;20208;-72
2023/06/26 21:29:22;;;;;;;6.60;2.03;;;22.90;50.00;;;;;;20918508;28;20232;-75
2023/06/26 21:39:25;;;;;;;7.07;1.97;;;22.80;50.50;;;;;;20939031;28;20236;-72
2023/06/26 21:49:26;;;;;;;3.37;2.00;;;22.70;51.30;;;;;;20955284;28;20362;-76
2023/06/26 21:59:29;;;;;;;4.17;1.57;;;22.70;51.60;;;;;;20946466;28;20208;-77
2023/06/26 22:09:31;;;;;;;5.63;2.30;;;22.60;51.60;;;;;;20962659;28;20241;-77
2023/06/26 22:19:33;;;;;;;4.47;2.00;;;22.60;51.60;;;;;;20943246;28;20300;-75
2023/06/26 22:29:34;;;;;;;3.00;1.70;;;22.60;51.40;;;;;;20903262;28;20238;-74
2023/06/26 22:39:38;;;;;;;4.87;1.93;;;22.50;51.10;;;;;;20835321;28;20335;-73
2023/06/26 22:49:39;;;;;;;6.00;1.70;;;22.40;51.50;;;;;;20845286;28;20692;-70
2023/06/26 22:59:41;;;;;;;5.03;1.70;;;22.40;51.70;;;;;;20833925;28;20292;-69
2023/06/26 23:09:43;;;;;;;2.23;1.73;;;22.30;51.80;;;;;;20833715;28;20256;-75
2023/06/26 23:19:48;;;;;;;6.40;2.07;;;22.20;52.00;;;;;;20832602;28;20208;-77
2023/06/26 23:29:53;;;;;;;6.00;1.70;;;22.00;52.20;;;;;;20835515;28;20554;-77
2023/06/26 23:39:55;;;;;;;2.40;1.70;;;21.90;52.40;;;;;;20832576;28;20351;-75
2023/06/26 23:49:57;;;;;;;4.63;1.73;;;21.80;52.50;;;;;;20834413;28;20665;-73
2023/06/26 23:59:58;;;;;;;5.50;1.60;;;21.50;52.70;;;;;;20912295;28;20203;-72
